createdAt,value
2018-11-05T00:00:59.433Z,8.94
2018-11-05T00:09:20.417Z,8.86
2018-11-05T00:17:41.395Z,8.76
2018-11-05T00:26:02.393Z,8.66
2018-11-05T00:34:23.408Z,8.57
2018-11-05T00:42:44.432Z,8.47
2018-11-05T00:51:05.456Z,8.42
2018-11-05T00:59:26.583Z,8.36
2018-11-05T01:07:47.580Z,8.26
2018-11-05T01:16:08.584Z,8.21
2018-11-05T01:24:29.596Z,8.14
2018-11-05T01:32:50.574Z,8.07
2018-11-05T01:41:11.669Z,8.11
2018-11-05T01:49:32.674Z,8.11
2018-11-05T01:57:53.673Z,8.06
2018-11-05T02:06:14.688Z,8.08
2018-11-05T02:14:35.696Z,8.13
2018-11-05T02:22:56.681Z,8.15
2018-11-05T02:31:17.663Z,8.14
2018-11-05T02:39:38.669Z,8.17
2018-11-05T02:47:59.658Z,8.29
2018-11-05T02:56:20.759Z,8.36
2018-11-05T03:04:41.763Z,8.44
2018-11-05T03:13:02.947Z,8.59
2018-11-05T03:21:23.964Z,8.58
2018-11-05T03:29:44.964Z,8.76
2018-11-05T03:38:05.968Z,8.79
2018-11-05T03:46:26.965Z,8.83
2018-11-05T03:54:47.970Z,8.80
2018-11-05T04:03:09.096Z,8.74
2018-11-05T04:11:30.076Z,8.72
2018-11-05T04:19:51.081Z,8.79
2018-11-05T04:28:12.103Z,8.78
2018-11-05T04:36:33.105Z,8.76
2018-11-05T04:44:54.133Z,8.88
2018-11-05T04:53:15.132Z,8.92
2018-11-05T05:01:36.152Z,9.01
2018-11-05T05:09:57.138Z,9.08
2018-11-05T05:18:18.157Z,9.26
2018-11-05T05:26:39.180Z,9.26
2018-11-05T05:35:00.220Z,9.32
2018-11-05T05:43:21.220Z,9.41
2018-11-05T05:51:42.240Z,9.52
2018-11-05T06:00:03.410Z,9.59
2018-11-05T06:08:24.476Z,9.67
2018-11-05T06:16:45.509Z,9.74
2018-11-05T06:25:06.528Z,9.80
2018-11-05T06:33:27.612Z,9.88
2018-11-05T06:41:48.677Z,9.95
2018-11-05T06:50:09.602Z,10.02
2018-11-05T06:58:30.583Z,10.04
2018-11-05T07:06:51.584Z,10.19
2018-11-05T07:15:12.585Z,10.36
2018-11-05T07:23:33.585Z,10.55
2018-11-05T07:31:54.589Z,10.62
2018-11-05T07:40:15.624Z,10.70
2018-11-05T07:48:36.705Z,10.82
2018-11-05T07:56:57.827Z,11.07
2018-11-05T08:05:18.737Z,11.60
2018-11-05T08:13:39.737Z,12.33
2018-11-05T08:22:00.745Z,12.95
2018-11-05T08:30:21.773Z,13.26
2018-11-05T08:38:42.799Z,13.08
2018-11-05T08:47:03.810Z,12.89
2018-11-05T08:55:24.798Z,12.86
2018-11-05T09:03:45.777Z,12.80
2018-11-05T09:12:06.850Z,12.85
2018-11-05T09:20:28.125Z,12.96
2018-11-05T09:28:49.161Z,12.72
2018-11-05T09:37:10.138Z,12.95
2018-11-05T09:45:31.141Z,13.34
2018-11-05T09:53:52.355Z,13.79
2018-11-05T10:02:13.378Z,13.76
2018-11-05T10:10:34.440Z,14.02
2018-11-05T10:18:55.710Z,14.32
2018-11-05T10:27:16.758Z,14.45
2018-11-05T10:35:37.821Z,14.20
2018-11-05T10:43:59.019Z,14.21
2018-11-05T10:52:20.138Z,14.41
2018-11-05T11:00:41.177Z,14.67
2018-11-05T11:09:02.268Z,15.13
2018-11-05T11:17:23.278Z,15.41
2018-11-05T11:25:44.369Z,15.56
2018-11-05T11:34:05.491Z,15.80
2018-11-05T11:42:26.591Z,16.24
2018-11-05T11:50:47.671Z,16.64
2018-11-05T11:59:08.743Z,17.00
2018-11-05T12:07:29.763Z,17.88
2018-11-05T12:15:51.096Z,18.65
2018-11-05T12:24:12.083Z,19.13
2018-11-05T12:32:33.066Z,19.95
2018-11-05T12:40:54.088Z,20.66
2018-11-05T12:49:15.206Z,21.48
2018-11-05T12:57:36.270Z,22.08
2018-11-05T13:05:57.273Z,22.36
2018-11-05T13:14:18.262Z,22.73
2018-11-05T13:22:39.339Z,23.28
2018-11-05T13:31:00.302Z,23.62
2018-11-05T13:39:21.328Z,24.16
2018-11-05T13:47:42.937Z,24.08
2018-11-05T13:56:03.348Z,23.33
2018-11-05T14:04:24.372Z,22.05
2018-11-05T14:12:45.441Z,21.11
2018-11-05T14:21:06.426Z,20.35
2018-11-05T14:29:27.747Z,19.69
2018-11-05T14:37:48.438Z,18.96
2018-11-05T14:46:09.530Z,18.31
2018-11-05T14:54:30.536Z,17.73
2018-11-05T15:02:51.563Z,17.23
2018-11-05T15:11:12.663Z,16.79
2018-11-05T15:19:34.065Z,16.40
2018-11-05T15:27:54.714Z,15.97
2018-11-05T15:36:15.741Z,15.58
2018-11-05T15:44:36.764Z,15.29
2018-11-05T15:52:58.292Z,14.91
2018-11-05T16:01:18.801Z,14.49
2018-11-05T16:09:39.829Z,14.21
2018-11-05T16:18:00.810Z,14.03
2018-11-05T16:26:21.802Z,13.94
2018-11-05T16:34:42.843Z,13.91
2018-11-05T16:43:03.809Z,13.88
2018-11-05T16:51:24.789Z,13.84
2018-11-05T16:59:45.841Z,13.83
2018-11-05T17:08:06.865Z,13.78
2018-11-05T17:16:28.962Z,13.72
2018-11-05T17:24:49.978Z,13.50
2018-11-05T17:33:10.963Z,13.39
2018-11-05T17:41:31.960Z,13.31
2018-11-05T17:49:53.030Z,13.26
2018-11-05T17:58:14.018Z,13.15
2018-11-05T18:06:35.128Z,13.14
2018-11-05T18:14:56.261Z,13.05
2018-11-05T18:23:17.282Z,13.02
2018-11-05T18:31:38.883Z,12.94
2018-11-05T18:39:59.922Z,12.86
2018-11-05T18:48:20.926Z,12.83
2018-11-05T18:56:42.032Z,12.79
2018-11-05T19:05:03.010Z,12.73
2018-11-05T19:13:24.033Z,12.65
2018-11-05T19:21:45.144Z,12.53
2018-11-05T19:30:06.197Z,12.50
2018-11-05T19:38:27.201Z,12.54
2018-11-05T19:46:48.187Z,12.53
2018-11-05T19:55:09.169Z,12.57
2018-11-05T20:03:30.176Z,12.55
2018-11-05T20:11:51.212Z,12.53
2018-11-05T20:20:12.319Z,12.45
2018-11-05T20:28:33.557Z,12.25
2018-11-05T20:36:54.418Z,12.13
2018-11-05T20:45:15.421Z,12.00
2018-11-05T20:53:36.461Z,11.90
2018-11-05T21:01:57.441Z,11.78
2018-11-05T21:10:18.472Z,11.70
2018-11-05T21:18:39.500Z,11.70
2018-11-05T21:27:00.555Z,11.71
2018-11-05T21:35:21.514Z,11.73
2018-11-05T21:43:42.516Z,11.75
2018-11-05T21:52:03.554Z,11.75
2018-11-05T22:00:24.561Z,11.74
2018-11-05T22:08:45.564Z,11.70
2018-11-05T22:17:06.579Z,11.62
2018-11-05T22:25:27.697Z,11.59
2018-11-05T22:33:48.724Z,11.47
2018-11-05T22:42:09.745Z,11.40
2018-11-05T22:50:30.756Z,11.43
2018-11-05T22:58:51.727Z,11.57
2018-11-05T23:07:12.794Z,11.62
2018-11-05T23:15:33.778Z,11.67
2018-11-05T23:23:54.891Z,11.73
2018-11-05T23:32:15.909Z,11.78
2018-11-05T23:40:37.092Z,11.80
2018-11-05T23:48:58.130Z,11.76
2018-11-05T23:57:19.110Z,11.84
